ADDS METAR Data INFO
IDs: Format: Raw Decoded Include TAF

Data at: 0451 UTC 22 Apr 2018

METAR for:KMWO (Middletown/Hook Fld, OH, US)
Text:KMWO 220435Z AUTO 36004KT 10SM CLR 09/M02 A3034 RMK AO2 T00891020
Temperature: 8.9°C ( 48°F)
Dewpoint: -2.0°C ( 28°F) [RH = 46%]
Pressure (altimeter):30.34 inches Hg (1027.5 mb)
Winds:from the N (360 degrees) at 5 MPH (4 knots; 2.1 m/s)
Visibility:10 or more sm (16+ km)
Ceiling:at least 12,000 feet AGL
Clouds:sky clear below 12,000 feet AGL
QC Flag:automated observation with no human augmentation